Home   Weather   USA   Greenville   Past weeks
Flag for USA

Past Weather in Greenville, Texas, USA — Yesterday and Last 2 Weeks

Currently: 74 °F. Fog. (Weather station: Greenville / Majors, USA). See more current weather

Past Weather in Greenville — Graph

°F

Greenville Temperature Yesterday

Maximum temperature yesterday: 89 °F (at 5:55 pm)
Minimum temperature yesterday: 68 °F (at 7:55 am)
Average temperature yesterday: 78 °F

High & Low Weather Summary for the Past Weeks

 TemperatureHumidityPressure
High90 °F (Jun 9, 5:15 pm)99% (Jun 1, 6:15 am)30.20 "Hg (Jun 1, 6:15 am)
Low58 °F (May 30, 6:55 am)52% (Jun 2, 4:55 pm)29.76 "Hg (Jun 6, 6:35 pm)
Average74 °F83%29.96 "Hg
* Reported May 29 6:15 am — Jun 13 6:15 am, Greenville. Weather by CustomWeather, © 2021

Note: Actual official high and low records may vary slightly from our data, if they occured in-between our weather recording intervals... More about our weather records

Greenville Weather History for the Previous 24 Hours

Scroll right to see more
 ConditionsComfort  
Time TempWeatherWind HumidityBarometerVisibility
6:15 am
Sun, Jun 13
71 °FFog.No wind98%29.97 "Hg2 mi
5:55 am71 °FFog.No wind99%29.97 "Hg7 mi
5:15 am73 °FFog.No wind98%29.96 "Hg5 mi
4:55 am73 °FFog.No wind98%29.95 "Hg3 mi
4:35 am75 °FClear.3 mph97%29.95 "Hg7 mi
4:15 am75 °FClear.No wind96%29.95 "Hg10 mi
3:55 am76 °FClear.3 mph96%29.95 "Hg10 mi
3:35 am75 °FClear.5 mph96%29.95 "Hg10 mi
3:15 am75 °FClear.5 mph97%29.95 "Hg10 mi
2:55 am74 °FFog.No wind99%29.94 "Hg2 mi
2:15 am73 °FClear.No wind98%29.94 "Hg10 mi
1:55 am75 °FFog.No wind98%29.94 "Hg7 mi
1:35 am75 °FClear.No wind98%29.94 "Hg10 mi
1:20 am74 °FClear.3 mph97%29.94 "Hg10 mi
12:55 am73 °FFog.3 mph98%29.94 "Hg3 mi
12:35 am74 °FClear.No wind97%29.94 "Hg7 mi
12:15 am75 °FClear.No wind99%29.94 "Hg10 mi
11:55 pm
Sat, Jun 12
74 °FClear.No wind98%29.94 "Hg10 mi
11:15 pm75 °FClear.5 mph96%29.94 "Hg10 mi
10:55 pm75 °FClear.No wind96%29.94 "Hg10 mi
10:15 pm76 °FClear.No wind96%29.93 "Hg10 mi
9:55 pm76 °FClear.No wind96%29.93 "Hg10 mi
9:35 pm76 °FClear.No wind95%29.92 "Hg10 mi
9:15 pm77 °FClear.No wind95%29.91 "Hg10 mi
8:55 pm78 °FClear.No wind91%29.91 "Hg10 mi
8:15 pm84 °FSunny.No wind73%29.90 "Hg10 mi
7:55 pm85 °FSunny.5 mph71%29.90 "Hg10 mi
7:15 pm87 °FSunny.7 mph65%29.89 "Hg10 mi
6:55 pm88 °FSunny.8 mph64%29.89 "Hg10 mi
6:35 pm89 °FSunny.8 mph61%29.89 "Hg10 mi
6:15 pm89 °FSunny.9 mph58%29.89 "Hg10 mi
5:55 pm89 °FSunny.9 mph59%29.90 "Hg10 mi
5:15 pm89 °FSunny.10 mph61%29.91 "Hg10 mi
4:55 pm89 °FSunny.9 mph61%29.91 "Hg10 mi
4:15 pm87 °FSunny.5 mph63%29.94 "Hg10 mi
3:55 pm87 °FSunny.6 mph65%29.94 "Hg10 mi
3:35 pm85 °FSunny.5 mph67%29.95 "Hg10 mi
2:35 pm84 °FSunny.3 mph66%29.96 "Hg10 mi
2:15 pm83 °FSunny.3 mph65%29.97 "Hg10 mi
1:55 pm81 °FSunny.No wind69%29.97 "Hg10 mi
1:15 pm80 °FSunny.5 mph75%29.98 "Hg10 mi
12:55 pm79 °FScattered clouds.6 mph77%29.96 "Hg10 mi
12:35 pm79 °FBroken clouds.3 mph76%29.98 "Hg10 mi
12:15 pm80 °FScattered clouds.7 mph70%29.97 "Hg10 mi
11:55 am80 °FSunny.5 mph67%29.98 "Hg10 mi
11:15 am79 °FSunny.7 mph70%29.97 "Hg10 mi
10:55 am79 °FSunny.13 mph68%29.96 "Hg10 mi
10:15 am74 °FSunny.12 mph81%29.94 "Hg10 mi
9:55 am73 °FSunny.18 mph85%29.93 "Hg10 mi
9:35 am73 °FScattered clouds.17 mph86%29.88 "Hg7 mi
9:15 am71 °FLight rain. Cloudy.12 mph91%29.85 "Hg10 mi
8:55 am71 °FLight rain. More clouds than sun.5 mph85%29.91 "Hg10 mi
8:10 am69 °FBroken clouds.7 mph96%29.94 "Hg10 mi
7:55 am68 °FBroken clouds.6 mph97%29.92 "Hg10 mi
Weather by CustomWeather, © 2021

See weather overview